createdAt,value
2022-09-14T00:02:07.145Z,99.79
2022-09-14T00:04:34.068Z,99.32
2022-09-14T00:07:00.994Z,98.82
2022-09-14T00:09:27.749Z,99.32
2022-09-14T00:11:56.337Z,99.69
2022-09-14T00:14:23.317Z,99.61
2022-09-14T00:16:51.035Z,99.04
2022-09-14T00:19:19.718Z,99.52
2022-09-14T00:21:50.891Z,100.00
2022-09-14T00:24:18.010Z,100.00
2022-09-14T00:26:44.963Z,99.89
2022-09-14T00:29:13.380Z,100.00
2022-09-14T00:31:40.882Z,100.00
2022-09-14T00:34:11.295Z,100.00
2022-09-14T00:36:39.921Z,99.94
2022-09-14T00:39:07.420Z,100.00
2022-09-14T00:41:36.657Z,100.00
2022-09-14T00:44:05.724Z,100.00
2022-09-14T00:46:37.105Z,100.00
2022-09-14T00:49:07.871Z,100.00
2022-09-14T00:51:37.944Z,100.00
2022-09-14T00:54:06.990Z,100.00
2022-09-14T00:56:34.139Z,100.00
2022-09-14T00:59:06.837Z,100.00
2022-09-14T01:01:35.373Z,100.00
2022-09-14T01:04:02.579Z,100.00
2022-09-14T01:06:36.885Z,100.00
2022-09-14T01:09:15.737Z,100.00
2022-09-14T01:11:53.654Z,100.00
2022-09-14T01:14:28.156Z,100.00
2022-09-14T01:17:05.420Z,100.00
2022-09-14T01:19:45.755Z,100.00
2022-09-14T01:22:18.530Z,100.00
2022-09-14T01:24:49.361Z,100.00
2022-09-14T01:27:35.884Z,100.00
2022-09-14T01:30:08.517Z,100.00
2022-09-14T01:32:40.972Z,100.00
2022-09-14T01:35:16.275Z,100.00
2022-09-14T01:37:45.775Z,100.00
2022-09-14T01:40:17.917Z,100.00
2022-09-14T01:42:49.401Z,100.00
2022-09-14T01:45:19.289Z,100.00
2022-09-14T01:47:49.490Z,100.00
2022-09-14T01:50:21.694Z,100.00
2022-09-14T01:52:53.213Z,100.00
2022-09-14T01:55:25.977Z,100.00
2022-09-14T01:58:02.408Z,100.00
2022-09-14T02:00:31.307Z,100.00
2022-09-14T02:03:05.807Z,100.00
2022-09-14T02:05:37.662Z,100.00
2022-09-14T02:08:04.761Z,100.00
2022-09-14T02:10:32.086Z,100.00
2022-09-14T02:13:00.585Z,100.00
2022-09-14T02:15:27.913Z,100.00
2022-09-14T02:17:55.397Z,100.00
2022-09-14T02:20:29.135Z,100.00
2022-09-14T02:22:55.933Z,100.00
2022-09-14T02:25:23.060Z,100.00
2022-09-14T02:27:49.946Z,100.00
2022-09-14T02:30:20.747Z,100.00
2022-09-14T02:32:58.361Z,100.00
2022-09-14T02:35:32.637Z,100.00
2022-09-14T02:38:08.651Z,100.00
2022-09-14T02:40:39.076Z,100.00
2022-09-14T02:43:19.626Z,100.00
2022-09-14T02:45:55.179Z,100.00
2022-09-14T02:48:29.970Z,100.00
2022-09-14T02:51:03.340Z,100.00
2022-09-14T02:53:37.261Z,100.00
2022-09-14T02:56:08.369Z,100.00
2022-09-14T02:58:37.040Z,100.00
2022-09-14T03:01:07.292Z,100.00
2022-09-14T03:03:35.813Z,100.00
2022-09-14T03:06:03.485Z,100.00
2022-09-14T03:08:30.426Z,100.00
2022-09-14T03:10:57.428Z,100.00
2022-09-14T03:13:24.740Z,100.00
2022-09-14T03:15:51.574Z,100.00
2022-09-14T03:18:20.020Z,100.00
2022-09-14T03:20:46.858Z,100.00
2022-09-14T03:23:14.425Z,100.00
2022-09-14T03:25:43.280Z,100.00
2022-09-14T03:28:11.364Z,100.00
2022-09-14T03:30:38.179Z,100.00
2022-09-14T03:33:05.697Z,100.00
2022-09-14T03:35:34.833Z,100.00
2022-09-14T03:38:03.132Z,100.00
2022-09-14T03:40:30.516Z,100.00
2022-09-14T03:42:57.463Z,100.00
2022-09-14T03:45:24.511Z,100.00
2022-09-14T03:47:51.418Z,100.00
2022-09-14T03:50:19.334Z,100.00
2022-09-14T03:52:47.897Z,100.00
2022-09-14T03:55:15.477Z,100.00
2022-09-14T03:57:42.297Z,100.00
2022-09-14T04:00:10.898Z,100.00
2022-09-14T04:02:41.194Z,100.00
2022-09-14T04:05:09.170Z,100.00
2022-09-14T04:07:36.142Z,100.00
2022-09-14T04:10:05.861Z,100.00
2022-09-14T04:12:35.005Z,100.00
2022-09-14T04:15:02.105Z,100.00
2022-09-14T04:17:29.034Z,100.00
2022-09-14T04:19:55.835Z,100.00
2022-09-14T04:22:22.745Z,100.00
2022-09-14T04:24:49.495Z,100.00
2022-09-14T04:27:18.013Z,100.00
2022-09-14T04:29:45.624Z,100.00
2022-09-14T04:32:12.369Z,100.00
2022-09-14T04:34:39.168Z,100.00
2022-09-14T04:37:05.858Z,100.00
2022-09-14T04:39:32.645Z,100.00
2022-09-14T04:41:59.526Z,100.00
2022-09-14T04:44:27.822Z,100.00
2022-09-14T04:46:55.176Z,100.00
2022-09-14T04:49:22.426Z,100.00
2022-09-14T04:51:49.467Z,100.00
2022-09-14T04:54:17.680Z,100.00
2022-09-14T04:56:45.380Z,100.00
2022-09-14T04:59:12.595Z,100.00
2022-09-14T05:01:42.419Z,100.00
2022-09-14T05:04:10.677Z,100.00
2022-09-14T05:06:40.186Z,100.00
2022-09-14T05:09:10.621Z,100.00
2022-09-14T05:11:37.744Z,100.00
2022-09-14T05:14:05.113Z,100.00
2022-09-14T05:16:33.859Z,100.00
2022-09-14T05:19:05.458Z,100.00
2022-09-14T05:21:34.854Z,100.00
2022-09-14T05:24:03.108Z,100.00
2022-09-14T05:26:31.877Z,100.00
2022-09-14T05:29:00.757Z,100.00
2022-09-14T05:31:29.218Z,100.00
2022-09-14T05:33:56.039Z,100.00
2022-09-14T05:36:24.815Z,100.00
2022-09-14T05:38:52.168Z,100.00
2022-09-14T05:41:19.048Z,100.00
2022-09-14T05:43:46.121Z,100.00
2022-09-14T05:46:14.539Z,100.00
2022-09-14T05:48:41.856Z,100.00
2022-09-14T05:51:11.732Z,100.00
2022-09-14T05:53:39.898Z,100.00
2022-09-14T05:56:08.479Z,99.75
2022-09-14T05:58:36.916Z,100.00
2022-09-14T06:01:08.451Z,100.00
2022-09-14T06:03:35.394Z,99.99
2022-09-14T06:06:02.536Z,99.77
2022-09-14T06:08:29.385Z,100.00
2022-09-14T06:11:02.458Z,99.69
2022-09-14T06:13:29.231Z,100.00
2022-09-14T06:15:56.693Z,100.00
2022-09-14T06:18:23.512Z,99.94
2022-09-14T06:20:51.335Z,99.95
2022-09-14T06:23:18.535Z,99.78
2022-09-14T06:25:45.340Z,100.00
2022-09-14T06:28:13.753Z,99.96
2022-09-14T06:30:43.291Z,99.79
2022-09-14T06:33:10.461Z,99.63
2022-09-14T06:35:37.191Z,99.89
2022-09-14T06:38:04.068Z,99.74
2022-09-14T06:40:31.073Z,99.49
2022-09-14T06:43:02.240Z,98.85
2022-09-14T06:45:32.487Z,98.49
2022-09-14T06:47:59.321Z,97.89
2022-09-14T06:50:26.076Z,96.35
2022-09-14T06:52:52.929Z,95.92
2022-09-14T06:55:19.882Z,95.68
2022-09-14T06:57:48.326Z,94.95
2022-09-14T07:00:15.845Z,94.43
2022-09-14T07:02:44.207Z,93.56
2022-09-14T07:05:11.222Z,93.11
2022-09-14T07:07:38.167Z,92.96
2022-09-14T07:10:06.041Z,93.35
2022-09-14T07:12:32.829Z,93.70
2022-09-14T07:14:59.583Z,93.84
2022-09-14T07:17:26.344Z,92.27
2022-09-14T07:19:54.711Z,91.94
2022-09-14T07:22:21.359Z,90.92
2022-09-14T07:24:48.143Z,88.83
2022-09-14T07:27:14.858Z,91.31
2022-09-14T07:29:41.701Z,90.63
2022-09-14T07:32:08.444Z,91.68
2022-09-14T07:34:35.171Z,91.68
2022-09-14T07:37:03.346Z,89.50
2022-09-14T07:39:30.008Z,88.97
2022-09-14T07:41:57.462Z,88.79
2022-09-14T07:44:24.624Z,89.77
2022-09-14T07:46:51.472Z,88.76
2022-09-14T07:49:18.400Z,88.74
2022-09-14T07:51:45.761Z,87.15
2022-09-14T07:54:16.647Z,87.89
2022-09-14T07:56:43.902Z,88.44
2022-09-14T07:59:34.533Z,88.63
2022-09-14T08:01:58.876Z,87.51
2022-09-14T08:04:26.070Z,89.43
2022-09-14T08:06:52.789Z,89.77
2022-09-14T08:09:21.114Z,89.35
2022-09-14T08:11:47.853Z,90.16
2022-09-14T08:14:15.592Z,88.43
2022-09-14T08:16:42.459Z,89.36
2022-09-14T08:19:13.441Z,90.51
2022-09-14T08:21:45.636Z,92.09
2022-09-14T08:24:15.111Z,92.37
2022-09-14T08:26:43.685Z,90.07
2022-09-14T08:29:12.229Z,89.76
2022-09-14T08:31:39.598Z,88.98
2022-09-14T08:34:07.306Z,87.88
2022-09-14T08:36:36.485Z,86.26
2022-09-14T08:39:03.761Z,87.66
2022-09-14T08:41:33.478Z,86.39
2022-09-14T08:44:10.916Z,89.96
2022-09-14T08:46:41.810Z,87.95
2022-09-14T08:49:13.547Z,83.49
2022-09-14T08:51:40.496Z,84.26
2022-09-14T08:54:09.797Z,81.29
2022-09-14T08:56:39.207Z,80.07
2022-09-14T08:59:23.140Z,81.79
2022-09-14T09:02:01.198Z,83.65
2022-09-14T09:04:50.135Z,79.19
2022-09-14T09:07:21.887Z,78.73
2022-09-14T09:09:50.988Z,76.73
2022-09-14T09:12:20.767Z,77.10
2022-09-14T09:14:53.476Z,75.98
2022-09-14T09:17:25.192Z,78.71
2022-09-14T09:20:03.913Z,77.42
2022-09-14T09:22:38.265Z,76.81
2022-09-14T09:25:10.184Z,73.67
2022-09-14T09:27:37.504Z,73.22
2022-09-14T09:30:07.719Z,70.32
2022-09-14T09:32:36.820Z,69.43
2022-09-14T09:35:19.444Z,68.26
2022-09-14T09:37:53.415Z,64.51
2022-09-14T09:40:27.978Z,64.78
2022-09-14T09:43:10.068Z,68.26
2022-09-14T09:45:51.247Z,69.22
2022-09-14T09:48:22.250Z,67.68
2022-09-14T09:51:02.235Z,65.71
2022-09-14T09:53:29.239Z,65.35
2022-09-14T09:55:57.175Z,64.55
2022-09-14T09:58:30.808Z,65.85
2022-09-14T10:01:01.181Z,69.21
2022-09-14T10:03:34.448Z,67.57
2022-09-14T10:06:04.241Z,69.64
2022-09-14T10:08:35.870Z,69.83
2022-09-14T10:11:03.605Z,71.09
2022-09-14T10:13:36.468Z,68.72
2022-09-14T10:16:08.794Z,70.06
2022-09-14T10:18:35.683Z,69.04
2022-09-14T10:21:09.102Z,67.23
2022-09-14T10:23:37.601Z,63.33
2022-09-14T10:26:24.862Z,56.45
2022-09-14T10:28:52.215Z,56.26
2022-09-14T10:31:27.969Z,57.99
2022-09-14T10:33:56.787Z,57.96
2022-09-14T10:36:29.399Z,64.44
2022-09-14T10:39:00.822Z,60.48
2022-09-14T10:41:35.346Z,60.58
2022-09-14T10:44:28.640Z,59.12
2022-09-14T10:47:13.583Z,60.84
2022-09-14T10:49:53.800Z,56.90
2022-09-14T10:52:26.671Z,56.62
2022-09-14T10:55:19.075Z,54.77
2022-09-14T10:58:00.510Z,54.58
2022-09-14T11:00:31.328Z,56.30
2022-09-14T11:03:32.617Z,53.89
2022-09-14T11:06:08.112Z,57.14
2022-09-14T11:08:44.278Z,50.28
2022-09-14T11:11:42.165Z,53.72
2022-09-14T11:14:21.256Z,51.23
2022-09-14T11:17:02.480Z,58.79
2022-09-14T11:19:38.463Z,58.85
2022-09-14T11:22:12.918Z,63.16
2022-09-14T11:24:44.976Z,62.00
2022-09-14T11:27:16.985Z,61.83
2022-09-14T11:29:51.124Z,59.63
2022-09-14T11:32:22.430Z,60.19
2022-09-14T11:34:56.217Z,62.55
2022-09-14T11:37:31.241Z,61.18
2022-09-14T11:40:01.900Z,65.69
2022-09-14T11:42:34.163Z,62.93
2022-09-14T11:45:05.323Z,63.14
2022-09-14T11:47:38.776Z,59.54
2022-09-14T11:50:18.668Z,55.01
2022-09-14T11:52:45.479Z,53.87
2022-09-14T11:55:17.486Z,51.31
2022-09-14T11:57:45.928Z,53.09
2022-09-14T12:00:45.302Z,52.41
2022-09-14T12:03:18.341Z,54.62
2022-09-14T12:05:47.752Z,58.32
2022-09-14T12:08:37.195Z,55.38
2022-09-14T12:11:28.858Z,52.51
2022-09-14T12:14:28.803Z,53.58
2022-09-14T12:20:32.051Z,54.73
2022-09-14T12:23:27.188Z,58.84
2022-09-14T12:25:58.982Z,61.48
2022-09-14T12:28:39.321Z,60.80
2022-09-14T12:31:11.676Z,62.34
2022-09-14T12:34:01.060Z,58.97
2022-09-14T12:36:58.210Z,59.12
2022-09-14T12:39:28.736Z,58.44
2022-09-14T12:42:03.939Z,59.52
2022-09-14T12:44:40.936Z,61.63
2022-09-14T12:47:53.473Z,62.35
2022-09-14T12:50:22.902Z,59.05
2022-09-14T12:53:00.895Z,58.79
2022-09-14T12:55:45.903Z,61.04
2022-09-14T12:58:44.099Z,62.61
2022-09-14T13:01:25.552Z,62.27
2022-09-14T13:03:54.899Z,63.15
2022-09-14T13:06:23.038Z,59.79
2022-09-14T13:08:53.860Z,61.62
2022-09-14T13:11:26.730Z,62.20
2022-09-14T13:13:55.459Z,63.54
2022-09-14T13:16:34.698Z,64.70
2022-09-14T13:19:03.258Z,65.48
2022-09-14T13:21:30.026Z,67.56
2022-09-14T13:23:56.904Z,68.66
2022-09-14T13:26:27.789Z,68.84
2022-09-14T13:28:56.590Z,69.89
2022-09-14T13:31:28.745Z,70.63
2022-09-14T13:33:56.464Z,68.99
2022-09-14T13:36:25.725Z,70.95
2022-09-14T13:38:54.014Z,71.15
2022-09-14T13:41:23.063Z,70.74
2022-09-14T13:43:54.337Z,68.35
2022-09-14T13:46:22.245Z,67.10
2022-09-14T13:48:49.934Z,65.55
2022-09-14T13:51:16.963Z,66.59
2022-09-14T13:53:48.589Z,64.78
2022-09-14T13:56:17.674Z,65.94
2022-09-14T13:58:45.712Z,67.87
2022-09-14T14:01:25.294Z,65.45
2022-09-14T14:03:52.388Z,65.91
2022-09-14T14:06:26.022Z,68.46
2022-09-14T14:08:56.406Z,65.17
2022-09-14T14:11:29.027Z,68.36
2022-09-14T14:13:55.927Z,68.31
2022-09-14T14:16:26.717Z,66.46
2022-09-14T14:18:54.860Z,67.82
2022-09-14T14:21:31.130Z,67.61
2022-09-14T14:24:17.922Z,65.11
2022-09-14T14:26:48.048Z,69.36
2022-09-14T14:29:18.548Z,65.33
2022-09-14T14:31:47.093Z,64.71
2022-09-14T14:34:19.716Z,64.81
2022-09-14T14:36:48.094Z,67.37
2022-09-14T14:39:14.922Z,66.39
2022-09-14T14:41:43.045Z,68.87
2022-09-14T14:44:15.479Z,69.32
2022-09-14T14:46:42.612Z,68.41
2022-09-14T14:49:12.625Z,70.40
2022-09-14T14:51:39.790Z,69.77
2022-09-14T14:54:06.769Z,69.08
2022-09-14T14:56:34.958Z,67.73
2022-09-14T14:59:02.436Z,67.82
2022-09-14T15:01:29.392Z,67.49
2022-09-14T15:03:56.258Z,66.26
2022-09-14T15:06:27.631Z,64.58
2022-09-14T15:08:55.747Z,65.92
2022-09-14T15:11:22.937Z,64.57
2022-09-14T15:13:50.086Z,67.44
2022-09-14T15:16:17.525Z,66.37
2022-09-14T15:18:44.788Z,68.85
2022-09-14T15:21:11.872Z,71.01
2022-09-14T15:23:40.508Z,67.85
2022-09-14T15:26:07.746Z,69.52
2022-09-14T15:28:38.507Z,66.31
2022-09-14T15:31:07.693Z,69.46
2022-09-14T15:33:34.803Z,68.18
2022-09-14T15:36:03.421Z,67.89
2022-09-14T15:38:30.441Z,67.54
2022-09-14T15:40:58.562Z,67.58
2022-09-14T15:43:25.427Z,65.81
2022-09-14T15:45:52.468Z,65.59
2022-09-14T15:48:19.550Z,65.73
2022-09-14T15:50:48.133Z,66.33
2022-09-14T15:53:17.298Z,65.47
2022-09-14T15:55:45.413Z,67.67
2022-09-14T15:58:13.715Z,65.81
2022-09-14T16:00:44.462Z,66.28
2022-09-14T16:03:11.370Z,67.00
2022-09-14T16:05:38.548Z,67.46
2022-09-14T16:08:05.778Z,66.17
2022-09-14T16:10:32.573Z,66.85
2022-09-14T16:12:59.433Z,66.12
2022-09-14T16:15:27.624Z,65.53
2022-09-14T16:17:55.667Z,65.59
2022-09-14T16:20:23.058Z,65.57
2022-09-14T16:22:50.617Z,66.63
2022-09-14T16:25:17.773Z,67.43
2022-09-14T16:27:45.004Z,67.41
2022-09-14T16:30:12.811Z,67.94
2022-09-14T16:32:41.021Z,69.46
2022-09-14T16:35:08.552Z,68.99
2022-09-14T16:37:35.704Z,69.95
2022-09-14T16:40:03.373Z,70.00
2022-09-14T16:42:30.224Z,69.88
2022-09-14T16:44:57.369Z,70.53
2022-09-14T16:47:25.816Z,70.64
2022-09-14T16:49:54.291Z,70.42
2022-09-14T16:52:21.202Z,71.30
2022-09-14T16:54:47.971Z,69.08
2022-09-14T16:57:14.802Z,68.82
2022-09-14T16:59:41.760Z,68.94
2022-09-14T17:02:11.147Z,70.03
2022-09-14T17:04:38.138Z,71.31
2022-09-14T17:07:06.531Z,71.52
2022-09-14T17:09:34.332Z,71.82
2022-09-14T17:12:01.180Z,70.26
2022-09-14T17:14:31.074Z,70.37
2022-09-14T17:16:58.788Z,70.51
2022-09-14T17:19:25.794Z,70.59
2022-09-14T17:21:53.173Z,70.99
2022-09-14T17:24:21.426Z,70.32
2022-09-14T17:26:48.285Z,70.47
2022-09-14T17:29:15.526Z,69.92
2022-09-14T17:31:44.039Z,70.62
2022-09-14T17:34:13.434Z,70.48
2022-09-14T17:36:40.297Z,71.65
2022-09-14T17:39:11.679Z,71.87
2022-09-14T17:41:40.506Z,72.71
2022-09-14T17:44:10.048Z,73.61
2022-09-14T17:46:43.240Z,74.12
2022-09-14T17:49:16.192Z,75.47
2022-09-14T17:51:45.310Z,76.43
2022-09-14T17:54:12.792Z,76.47
2022-09-14T17:56:40.982Z,76.67
2022-09-14T17:59:11.127Z,76.57
2022-09-14T18:01:38.350Z,76.94
2022-09-14T18:04:07.490Z,76.89
2022-09-14T18:06:37.017Z,76.85
2022-09-14T18:09:04.683Z,76.97
2022-09-14T18:11:32.012Z,77.85
2022-09-14T18:14:00.433Z,77.97
2022-09-14T18:16:27.755Z,79.13
2022-09-14T18:18:57.148Z,80.21
2022-09-14T18:21:24.507Z,80.38
2022-09-14T18:23:52.341Z,82.30
2022-09-14T18:26:20.287Z,83.66
2022-09-14T18:28:47.201Z,83.77
2022-09-14T18:31:17.966Z,84.46
2022-09-14T18:33:48.579Z,85.01
2022-09-14T18:36:15.397Z,84.97
2022-09-14T18:38:42.684Z,85.58
2022-09-14T18:41:11.629Z,87.06
2022-09-14T18:43:41.935Z,86.25
2022-09-14T18:46:08.829Z,87.04
2022-09-14T18:48:37.210Z,86.83
2022-09-14T18:51:05.244Z,88.21
2022-09-14T18:53:32.108Z,89.53
2022-09-14T18:56:02.036Z,88.84
2022-09-14T18:58:32.112Z,89.68
2022-09-14T19:00:59.008Z,90.42
2022-09-14T19:03:26.015Z,91.50
2022-09-14T19:05:54.153Z,92.04
2022-09-14T19:08:21.049Z,91.84
2022-09-14T19:10:47.876Z,91.99
2022-09-14T19:13:14.896Z,90.83
2022-09-14T19:15:41.774Z,91.93
2022-09-14T19:18:09.114Z,92.14
2022-09-14T19:21:04.689Z,91.68
2022-09-14T19:23:27.623Z,91.79
2022-09-14T19:25:54.362Z,91.38
2022-09-14T19:28:21.073Z,90.94
2022-09-14T19:30:48.860Z,90.91
2022-09-14T19:33:15.655Z,91.41
2022-09-14T19:35:42.391Z,90.61
2022-09-14T19:38:09.071Z,90.65
2022-09-14T19:40:37.267Z,90.13
2022-09-14T19:43:04.098Z,90.78
2022-09-14T19:45:31.724Z,92.19
2022-09-14T19:47:59.044Z,90.28
2022-09-14T19:50:25.819Z,90.56
2022-09-14T19:52:53.436Z,89.25
2022-09-14T19:55:20.201Z,88.59
2022-09-14T19:57:48.861Z,89.36
2022-09-14T20:00:18.179Z,89.18
2022-09-14T20:02:45.121Z,89.42
2022-09-14T20:05:12.262Z,89.93
2022-09-14T20:07:39.065Z,90.92
2022-09-14T20:10:06.736Z,89.58
2022-09-14T20:12:33.696Z,89.59
2022-09-14T20:15:02.192Z,89.97
2022-09-14T20:17:29.076Z,89.80
2022-09-14T20:19:56.045Z,89.93
2022-09-14T20:22:23.060Z,92.43
2022-09-14T20:24:50.311Z,92.44
2022-09-14T20:27:17.692Z,91.10
2022-09-14T20:29:44.507Z,90.57
2022-09-14T20:32:12.684Z,90.48
2022-09-14T20:34:39.626Z,90.33
2022-09-14T20:37:06.432Z,90.33
2022-09-14T20:39:36.029Z,90.36
2022-09-14T20:42:03.146Z,89.51
2022-09-14T20:44:30.198Z,89.38
2022-09-14T20:46:57.102Z,90.33
2022-09-14T20:49:25.386Z,92.14
2022-09-14T20:51:57.375Z,93.65
2022-09-14T20:54:24.839Z,95.23
2022-09-14T20:56:51.652Z,95.68
2022-09-14T20:59:19.765Z,96.22
2022-09-14T21:01:49.419Z,96.88
2022-09-14T21:04:18.606Z,96.63
2022-09-14T21:06:49.474Z,96.28
2022-09-14T21:09:18.291Z,96.80
2022-09-14T21:11:46.027Z,96.54
2022-09-14T21:14:13.915Z,97.16
2022-09-14T21:16:43.150Z,97.15
2022-09-14T21:19:13.474Z,97.27
2022-09-14T21:21:40.529Z,97.26
2022-09-14T21:24:12.055Z,98.06
2022-09-14T21:26:42.700Z,98.46
2022-09-14T21:29:14.475Z,98.41
2022-09-14T21:31:41.633Z,98.30
2022-09-14T21:34:10.427Z,98.78
2022-09-14T21:36:39.298Z,98.97
2022-09-14T21:39:09.225Z,98.94
2022-09-14T21:41:36.574Z,99.85
2022-09-14T21:44:03.872Z,99.68
2022-09-14T21:46:31.084Z,99.43
2022-09-14T21:48:58.129Z,100.00
2022-09-14T21:51:26.796Z,99.83
2022-09-14T21:53:55.053Z,100.00
2022-09-14T21:56:25.278Z,100.00
2022-09-14T21:58:53.994Z,99.88
2022-09-14T22:01:24.525Z,100.00
2022-09-14T22:03:52.976Z,100.00
2022-09-14T22:06:22.564Z,100.00
2022-09-14T22:08:50.444Z,99.97
2022-09-14T22:11:23.089Z,98.99
2022-09-14T22:13:54.541Z,98.83
2022-09-14T22:16:23.216Z,97.90
2022-09-14T22:18:52.737Z,97.70
2022-09-14T22:21:21.512Z,97.07
2022-09-14T22:23:53.375Z,97.72
2022-09-14T22:26:21.522Z,97.22
2022-09-14T22:28:49.781Z,97.01
2022-09-14T22:31:20.382Z,96.79
2022-09-14T22:33:47.724Z,95.91
2022-09-14T22:36:15.323Z,96.09
2022-09-14T22:38:42.564Z,96.22
2022-09-14T22:41:11.855Z,96.60
2022-09-14T22:43:40.054Z,95.94
2022-09-14T22:46:08.034Z,95.87
2022-09-14T22:48:37.117Z,95.86
2022-09-14T22:51:05.921Z,95.31
2022-09-14T22:53:34.071Z,95.57
2022-09-14T22:56:07.998Z,96.04
2022-09-14T22:58:35.066Z,96.23
2022-09-14T23:01:06.346Z,95.53
2022-09-14T23:03:33.469Z,94.56
2022-09-14T23:06:02.055Z,94.67
2022-09-14T23:08:29.446Z,95.04
2022-09-14T23:10:56.597Z,95.37
2022-09-14T23:13:23.572Z,95.28
2022-09-14T23:15:50.378Z,95.71
2022-09-14T23:18:17.427Z,95.88
2022-09-14T23:20:45.195Z,95.59
2022-09-14T23:23:13.606Z,95.05
2022-09-14T23:25:41.468Z,94.46
2022-09-14T23:28:11.077Z,94.05
2022-09-14T23:30:38.703Z,94.27
2022-09-14T23:33:05.603Z,93.66
2022-09-14T23:35:36.920Z,94.09
2022-09-14T23:38:04.519Z,97.73
2022-09-14T23:40:32.809Z,98.41
2022-09-14T23:42:59.893Z,97.42
2022-09-14T23:45:27.042Z,96.17
2022-09-14T23:47:53.858Z,97.37
2022-09-14T23:50:20.701Z,98.09
2022-09-14T23:52:47.582Z,97.85
2022-09-14T23:55:14.839Z,98.15
2022-09-14T23:57:43.051Z,97.90
